SCIE/CCP METAR and TAF weather

Enter ICAO airport designator
Station Type Date Time Source
SCIE METAR 2020/11/27 02:00 UTC NOAA

SCIE 270200Z 21011KT CAVOK 13/08 Q1016


Station Type Date Time Source
SCIE Decoded METAR 2020/11/27 02:00 UTC NOAA

Concepcion, Chile (SCIE) 36-46S 073-03W
Nov 26, 2020 - 09:00 PM EST / 2020.11.27 0200 UTC
Wind: from the SSW (210 degrees) at 13 MPH (11 KT):0
Visibility: greater than 7 mile(s):0
Temperature: 55 F (13 C)
Dew Point: 46 F (8 C)
Relative Humidity: 71%
Pressure (altimeter): 30.00 in. Hg (1016 hPa)
ob: SCIE 270200Z 21011KT CAVOK 13/08 Q1016
cycle: 2

Station Type Date Time Source
SCIE TAF 2020/11/27 00:00 UTC NOAA

TAF SCIE 262210Z 2700/2724 23015KT CAVOK TX19/2718Z TN10/2710Z
BECMG 2701/2703 21008KT
TEMPO 2708/2712 16004KT
BECMG 2715/2717 22016KT

Example: see airport list